createdAt,value
2018-04-13T00:01:59.292Z,15.10
2018-04-13T00:04:27.087Z,15.10
2018-04-13T00:06:54.820Z,15.10
2018-04-13T00:09:22.567Z,15.10
2018-04-13T00:11:51.537Z,15.10
2018-04-13T00:14:19.301Z,15.10
2018-04-13T00:16:47.036Z,15.10
2018-04-13T00:19:14.812Z,15.10
2018-04-13T00:21:42.549Z,15.10
2018-04-13T00:24:10.285Z,15.00
2018-04-13T00:26:38.033Z,15.00
2018-04-13T00:29:05.784Z,15.00
2018-04-13T00:31:33.505Z,15.00
2018-04-13T00:34:01.241Z,14.90
2018-04-13T00:36:28.977Z,14.90
2018-04-13T00:38:57.499Z,14.90
2018-04-13T00:41:25.246Z,14.90
2018-04-13T00:43:53.002Z,15.00
2018-04-13T00:46:21.541Z,15.00
2018-04-13T00:48:49.751Z,15.00
2018-04-13T00:51:18.253Z,15.00
2018-04-13T00:53:46.016Z,15.00
2018-04-13T00:56:13.740Z,15.00
2018-04-13T00:58:41.473Z,15.00
2018-04-13T01:01:09.235Z,14.90
2018-04-13T01:03:36.981Z,14.90
2018-04-13T01:06:04.778Z,14.90
2018-04-13T01:08:32.513Z,15.00
2018-04-13T01:11:00.267Z,15.00
2018-04-13T01:13:28.027Z,15.00
2018-04-13T01:15:55.756Z,14.90
2018-04-13T01:18:24.259Z,15.00
2018-04-13T01:20:52.012Z,15.00
2018-04-13T01:23:20.517Z,15.00
2018-04-13T01:25:48.255Z,15.00
2018-04-13T01:28:16.757Z,15.00
2018-04-13T01:30:44.545Z,15.00
2018-04-13T01:33:12.295Z,15.00
2018-04-13T01:35:40.013Z,15.00
2018-04-13T01:38:07.753Z,15.00
2018-04-13T01:40:35.497Z,15.00
2018-04-13T01:43:03.233Z,15.00
2018-04-13T01:45:31.024Z,15.00
2018-04-13T01:47:58.789Z,15.00
2018-04-13T01:50:27.073Z,14.90
2018-04-13T01:52:54.816Z,14.90
2018-04-13T01:55:22.572Z,14.90
2018-04-13T01:57:50.360Z,14.90
2018-04-13T02:00:18.112Z,14.90
2018-04-13T02:02:45.847Z,14.90
2018-04-13T02:05:14.344Z,14.90
2018-04-13T02:07:42.080Z,14.90
2018-04-13T02:10:10.618Z,14.80
2018-04-13T02:12:38.365Z,14.80
2018-04-13T02:15:06.117Z,14.90
2018-04-13T02:17:33.956Z,14.90
2018-04-13T02:20:02.477Z,14.80
2018-04-13T02:22:30.209Z,14.80
2018-04-13T02:24:58.708Z,14.80
2018-04-13T02:27:26.443Z,14.80
2018-04-13T02:29:54.945Z,14.80
2018-04-13T02:32:22.677Z,14.80
2018-04-13T02:34:50.437Z,14.80
2018-04-13T02:37:18.170Z,14.80
2018-04-13T02:39:45.953Z,14.80
2018-04-13T02:42:13.686Z,14.80
2018-04-13T02:44:41.439Z,14.80
2018-04-13T02:47:09.181Z,14.90
2018-04-13T02:49:37.953Z,14.90
2018-04-13T02:52:06.539Z,14.80
2018-04-13T02:54:35.026Z,14.80
2018-04-13T02:57:03.530Z,14.80
2018-04-13T02:59:31.279Z,14.80
2018-04-13T03:01:59.797Z,14.80
2018-04-13T03:04:27.608Z,14.80
2018-04-13T03:06:56.101Z,14.80
2018-04-13T03:09:24.594Z,14.80
2018-04-13T03:11:52.354Z,14.80
2018-04-13T03:14:20.218Z,14.80
2018-04-13T03:16:48.736Z,14.80
2018-04-13T03:19:16.484Z,14.80
2018-04-13T03:21:44.221Z,14.80
2018-04-13T03:24:12.713Z,14.90
2018-04-13T03:26:40.446Z,14.80
2018-04-13T03:29:08.960Z,14.80
2018-04-13T03:31:36.690Z,14.80
2018-04-13T03:34:04.462Z,14.90
2018-04-13T03:36:32.952Z,14.80
2018-04-13T03:39:01.437Z,14.80
2018-04-13T03:41:29.989Z,14.80
2018-04-13T03:43:57.716Z,14.80
2018-04-13T03:46:25.446Z,14.80
2018-04-13T03:48:53.946Z,14.80
2018-04-13T03:51:21.719Z,14.80
2018-04-13T03:53:49.482Z,14.80
2018-04-13T03:56:17.231Z,14.80
2018-04-13T03:58:44.960Z,14.80
2018-04-13T04:01:13.468Z,14.80
2018-04-13T04:03:41.200Z,14.70
2018-04-13T04:06:08.953Z,14.80
2018-04-13T04:08:36.683Z,14.80
2018-04-13T04:11:04.473Z,14.80
2018-04-13T04:13:32.217Z,14.80
2018-04-13T04:15:59.937Z,14.80
2018-04-13T04:18:28.437Z,14.70
2018-04-13T04:21:07.957Z,14.70
2018-04-13T04:23:48.150Z,14.70
2018-04-13T04:29:22.829Z,14.70
2018-04-13T04:31:50.630Z,14.70
2018-04-13T04:34:19.224Z,14.70
2018-04-13T04:36:46.975Z,14.70
2018-04-13T04:39:16.138Z,14.70
2018-04-13T04:41:43.903Z,14.70
2018-04-13T04:44:11.648Z,14.70
2018-04-13T04:46:39.393Z,14.60
2018-04-13T04:49:07.410Z,14.60
2018-04-13T04:51:35.165Z,14.50
2018-04-13T04:54:02.919Z,14.50
2018-04-13T04:56:30.655Z,14.40
2018-04-13T04:58:58.415Z,14.40
2018-04-13T05:01:26.174Z,14.50
2018-04-13T05:03:53.926Z,14.50
2018-04-13T05:06:21.676Z,14.50
2018-04-13T05:08:50.189Z,14.50
2018-04-13T05:11:17.974Z,14.40
2018-04-13T05:13:45.713Z,14.50
2018-04-13T05:16:13.478Z,14.50
2018-04-13T05:18:41.232Z,14.50
2018-04-13T05:21:08.986Z,14.50
2018-04-13T05:23:36.726Z,14.50
2018-04-13T05:26:05.282Z,14.50
2018-04-13T05:28:33.053Z,14.40
2018-04-13T05:31:00.790Z,14.50
2018-04-13T05:33:28.529Z,14.40
2018-04-13T05:35:56.274Z,14.40
2018-04-13T05:38:24.785Z,14.40
2018-04-13T05:40:52.537Z,14.40
2018-04-13T05:43:20.287Z,14.40
2018-04-13T05:45:48.812Z,14.40
2018-04-13T05:48:16.616Z,14.40
2018-04-13T05:50:45.130Z,14.30
2018-04-13T05:53:12.910Z,14.30
2018-04-13T05:55:40.678Z,14.30
2018-04-13T05:58:08.417Z,14.30
2018-04-13T06:00:36.168Z,14.20
2018-04-13T06:03:04.665Z,14.20
2018-04-13T06:05:32.424Z,14.20
2018-04-13T06:08:00.178Z,14.20
2018-04-13T06:10:28.672Z,14.20
2018-04-13T06:12:56.476Z,14.20
2018-04-13T06:15:24.211Z,14.20
2018-04-13T06:17:51.948Z,14.30
2018-04-13T06:20:20.460Z,14.30
2018-04-13T06:22:48.207Z,14.20
2018-04-13T06:25:15.949Z,14.20
2018-04-13T06:27:44.456Z,14.20
2018-04-13T06:30:12.199Z,14.10
2018-04-13T06:32:40.706Z,14.10
2018-04-13T06:35:08.464Z,14.10
2018-04-13T06:37:36.197Z,14.20
2018-04-13T06:40:04.736Z,14.20
2018-04-13T06:42:32.507Z,14.20
2018-04-13T06:45:00.241Z,14.20
2018-04-13T06:47:27.979Z,14.20
2018-04-13T06:49:56.493Z,14.30
2018-04-13T06:52:24.228Z,14.20
2018-04-13T06:54:52.725Z,14.30
2018-04-13T06:57:20.501Z,14.30
2018-04-13T06:59:48.293Z,14.40
2018-04-13T07:02:16.041Z,14.40
2018-04-13T07:04:43.796Z,14.40
2018-04-13T07:07:11.557Z,14.40
2018-04-13T07:09:39.304Z,14.40
2018-04-13T07:12:07.108Z,14.40
2018-04-13T07:14:34.856Z,14.50
2018-04-13T07:17:02.601Z,14.50
2018-04-13T07:19:30.338Z,14.50
2018-04-13T07:21:58.825Z,14.50
2018-04-13T07:24:27.332Z,14.50
2018-04-13T07:26:55.064Z,14.50
2018-04-13T07:29:23.886Z,14.50
2018-04-13T07:31:51.416Z,14.50
2018-04-13T07:34:19.924Z,14.50
2018-04-13T07:36:47.653Z,14.50
2018-04-13T07:39:16.281Z,14.60
2018-04-13T07:41:43.949Z,14.60
2018-04-13T07:44:11.705Z,14.70
2018-04-13T07:46:39.428Z,14.70
2018-04-13T07:49:07.952Z,14.70
2018-04-13T07:51:35.698Z,14.70
2018-04-13T07:54:03.437Z,14.80
2018-04-13T07:56:31.949Z,14.80
2018-04-13T07:58:59.685Z,14.80
2018-04-13T08:01:28.207Z,14.90
2018-04-13T08:03:56.265Z,14.90
2018-04-13T08:06:23.752Z,15.00
2018-04-13T08:08:52.475Z,14.90
2018-04-13T08:11:20.088Z,14.90
2018-04-13T08:13:47.825Z,14.80
2018-04-13T08:16:15.624Z,14.80
2018-04-13T08:18:43.379Z,14.80
2018-04-13T08:21:11.117Z,14.80
2018-04-13T08:23:38.877Z,14.80
2018-04-13T08:26:06.609Z,14.80
2018-04-13T08:28:34.394Z,14.80
2018-04-13T08:31:02.915Z,14.80
2018-04-13T08:33:30.693Z,14.80
2018-04-13T08:35:58.419Z,14.90
2018-04-13T08:38:26.155Z,14.90
2018-04-13T08:40:54.656Z,14.90
2018-04-13T08:43:22.473Z,14.90
2018-04-13T08:45:50.213Z,15.00
2018-04-13T08:48:17.973Z,15.00
2018-04-13T08:50:45.732Z,15.00
2018-04-13T08:53:13.461Z,15.10
2018-04-13T08:55:41.982Z,15.20
2018-04-13T08:58:09.730Z,15.20
2018-04-13T09:00:37.552Z,15.30
2018-04-13T09:03:05.295Z,15.40
2018-04-13T09:05:33.029Z,15.40
2018-04-13T09:08:00.760Z,15.50
2018-04-13T09:10:29.252Z,15.70
2018-04-13T09:12:57.099Z,15.70
2018-04-13T09:15:24.772Z,15.90
2018-04-13T09:17:53.272Z,16.10
2018-04-13T09:20:21.000Z,16.10
2018-04-13T09:22:48.753Z,16.20
2018-04-13T09:25:16.509Z,16.30
2018-04-13T09:27:44.256Z,16.30
2018-04-13T09:30:12.001Z,16.20
2018-04-13T09:32:39.750Z,16.30
2018-04-13T09:35:07.517Z,16.30
2018-04-13T09:37:35.267Z,16.30
2018-04-13T09:40:03.772Z,16.30
2018-04-13T09:42:31.532Z,16.20
2018-04-13T09:44:59.278Z,16.10
2018-04-13T09:47:27.059Z,16.20
2018-04-13T09:49:54.852Z,16.20
2018-04-13T09:52:22.603Z,16.30
2018-04-13T09:54:50.328Z,16.30
2018-04-13T09:57:18.821Z,16.50
2018-04-13T09:59:46.546Z,16.50
2018-04-13T10:02:19.888Z,16.50
2018-04-13T10:04:47.703Z,16.60
2018-04-13T10:07:15.429Z,16.70
2018-04-13T10:09:43.165Z,16.70
2018-04-13T10:12:10.928Z,16.90
2018-04-13T10:14:38.697Z,16.90
2018-04-13T10:17:06.425Z,17.00
2018-04-13T10:19:34.149Z,17.10
2018-04-13T10:22:01.887Z,17.10
2018-04-13T10:24:29.620Z,17.00
2018-04-13T10:26:57.348Z,17.00
2018-04-13T10:29:25.116Z,16.90
2018-04-13T10:31:52.846Z,16.90
2018-04-13T10:34:20.569Z,16.90
2018-04-13T10:36:48.296Z,17.00
2018-04-13T10:39:16.016Z,16.90
2018-04-13T10:41:44.507Z,17.00
2018-04-13T10:44:12.285Z,17.00
2018-04-13T10:46:40.019Z,17.00
2018-04-13T10:49:07.782Z,17.00
2018-04-13T10:51:36.278Z,17.10
2018-04-13T10:54:04.043Z,17.10
2018-04-13T10:56:31.807Z,17.10
2018-04-13T10:58:59.548Z,17.10
2018-04-13T11:01:28.053Z,17.10
2018-04-13T11:03:55.784Z,17.10
2018-04-13T11:06:23.524Z,16.90
2018-04-13T11:08:51.256Z,16.80
2018-04-13T11:11:19.034Z,16.70
2018-04-13T11:13:46.811Z,16.70
2018-04-13T11:16:14.537Z,16.70
2018-04-13T11:18:42.269Z,16.70
2018-04-13T11:21:10.774Z,16.70
2018-04-13T11:23:38.537Z,16.70
2018-04-13T11:26:06.443Z,16.80
2018-04-13T11:28:34.174Z,16.80
2018-04-13T11:31:01.897Z,16.90
2018-04-13T11:33:30.359Z,16.90
2018-04-13T11:35:58.092Z,16.90
2018-04-13T11:38:25.848Z,16.90
2018-04-13T11:40:53.619Z,16.80
2018-04-13T11:43:21.391Z,16.70
2018-04-13T11:45:49.141Z,16.70
2018-04-13T11:48:18.108Z,16.80
2018-04-13T11:50:45.916Z,16.80
2018-04-13T11:53:13.680Z,16.90
2018-04-13T11:55:41.486Z,16.80
2018-04-13T11:58:09.283Z,16.80
2018-04-13T12:00:37.078Z,16.80
2018-04-13T12:03:04.876Z,16.90
2018-04-13T12:05:32.615Z,16.90
2018-04-13T12:08:01.105Z,16.90
2018-04-13T12:10:28.868Z,16.80
2018-04-13T12:12:56.616Z,16.80
2018-04-13T12:15:24.380Z,16.80
2018-04-13T12:17:52.100Z,16.80
2018-04-13T12:20:20.601Z,16.80
2018-04-13T12:22:48.399Z,16.80
2018-04-13T12:25:16.144Z,16.80
2018-04-13T12:27:43.918Z,16.80
2018-04-13T12:30:12.407Z,16.80
2018-04-13T12:32:40.135Z,16.80
2018-04-13T12:35:07.913Z,16.80
2018-04-13T12:37:35.734Z,16.90
2018-04-13T12:40:04.642Z,16.70
2018-04-13T12:42:32.384Z,16.70
2018-04-13T12:45:00.921Z,16.50
2018-04-13T12:47:28.657Z,16.50
2018-04-13T12:49:56.387Z,16.40
2018-04-13T12:52:24.134Z,16.30
2018-04-13T12:54:52.090Z,16.30
2018-04-13T12:57:19.661Z,16.20
2018-04-13T12:59:47.393Z,16.20
2018-04-13T13:02:15.122Z,16.20
2018-04-13T13:04:42.861Z,16.30
2018-04-13T13:07:10.608Z,16.30
2018-04-13T13:09:38.325Z,16.30
2018-04-13T13:12:06.060Z,16.10
2018-04-13T13:14:34.576Z,16.00
2018-04-13T13:17:02.306Z,16.00
2018-04-13T13:19:30.797Z,15.90
2018-04-13T13:21:59.384Z,15.80
2018-04-13T13:24:27.133Z,15.80
2018-04-13T13:26:55.655Z,15.80
2018-04-13T13:29:23.389Z,15.80
2018-04-13T13:31:53.507Z,15.90
2018-04-13T13:34:22.499Z,15.80
2018-04-13T13:36:50.599Z,15.70
2018-04-13T13:39:18.376Z,15.60
2018-04-13T13:41:46.104Z,15.60
2018-04-13T13:44:14.615Z,15.60
2018-04-13T13:46:42.352Z,15.60
2018-04-13T13:49:10.864Z,15.60
2018-04-13T13:51:38.672Z,15.60
2018-04-13T13:54:06.452Z,15.60
2018-04-13T13:56:34.233Z,15.60
2018-04-13T13:59:01.981Z,15.60
2018-04-13T14:01:30.495Z,15.70
2018-04-13T14:03:58.252Z,15.60
2018-04-13T14:06:26.027Z,15.70
2018-04-13T14:08:53.779Z,15.80
2018-04-13T14:11:23.434Z,15.80
2018-04-13T14:13:51.293Z,15.80
2018-04-13T14:16:19.059Z,15.80
2018-04-13T14:18:46.793Z,15.80
2018-04-13T14:21:14.537Z,15.90
2018-04-13T14:23:42.320Z,16.00
2018-04-13T14:26:10.065Z,16.00
2018-04-13T14:28:37.794Z,16.10
2018-04-13T14:31:05.606Z,16.10
2018-04-13T14:33:33.348Z,16.20
2018-04-13T14:36:01.101Z,16.40
2018-04-13T14:38:29.777Z,16.40
2018-04-13T14:40:58.293Z,16.50
2018-04-13T14:43:26.117Z,16.50
2018-04-13T14:45:54.644Z,16.50
2018-04-13T14:48:22.441Z,16.50
2018-04-13T14:50:50.226Z,16.50
2018-04-13T14:53:18.768Z,16.60
2018-04-13T14:55:46.512Z,16.60
2018-04-13T14:58:14.277Z,16.60
2018-04-13T15:00:42.091Z,16.70
2018-04-13T15:03:09.893Z,16.70
2018-04-13T15:05:38.405Z,16.70
2018-04-13T15:08:06.152Z,16.70
2018-04-13T15:10:33.948Z,16.70
2018-04-13T15:13:01.747Z,16.70
2018-04-13T15:15:30.246Z,16.70
2018-04-13T15:17:58.756Z,16.70
2018-04-13T15:20:26.496Z,16.70
2018-04-13T15:22:54.231Z,16.70
2018-04-13T15:25:23.397Z,16.70
2018-04-13T15:27:51.130Z,16.70
2018-04-13T15:30:18.853Z,16.70
2018-04-13T15:32:46.606Z,16.70
2018-04-13T15:35:14.361Z,16.70
2018-04-13T15:37:42.129Z,16.70
2018-04-13T15:40:09.940Z,16.70
2018-04-13T15:42:38.441Z,16.60
2018-04-13T15:45:06.204Z,16.60
2018-04-13T15:47:33.986Z,16.60
2018-04-13T15:50:01.771Z,16.60
2018-04-13T15:52:29.510Z,16.60
2018-04-13T15:54:57.265Z,16.50
2018-04-13T15:57:25.028Z,16.50
2018-04-13T15:59:52.809Z,16.50
2018-04-13T16:02:20.557Z,16.50
2018-04-13T16:04:48.366Z,16.40
2018-04-13T16:07:16.238Z,16.40
2018-04-13T16:09:44.757Z,16.20
2018-04-13T16:12:12.532Z,16.20
2018-04-13T16:14:40.448Z,16.10
2018-04-13T16:17:09.968Z,16.00
2018-04-13T16:19:39.172Z,15.90
2018-04-13T16:22:06.994Z,15.90
2018-04-13T16:24:34.805Z,15.90
2018-04-13T16:27:02.850Z,15.80
2018-04-13T16:29:31.454Z,15.80
2018-04-13T16:32:00.075Z,15.70
2018-04-13T16:34:27.973Z,15.70
2018-04-13T16:36:55.908Z,15.70
2018-04-13T16:39:23.735Z,15.70
2018-04-13T16:41:52.458Z,15.60
2018-04-13T16:44:20.188Z,15.60
2018-04-13T16:46:48.733Z,15.60
2018-04-13T16:49:16.525Z,15.60
2018-04-13T16:51:45.050Z,15.70
2018-04-13T16:54:13.464Z,15.70
2018-04-13T16:56:42.065Z,15.80
2018-04-13T16:59:10.683Z,15.80
2018-04-13T17:01:38.515Z,15.80
2018-04-13T17:04:07.078Z,15.80
2018-04-13T17:06:34.905Z,15.70
2018-04-13T17:09:02.713Z,15.80
2018-04-13T17:11:30.605Z,15.80
2018-04-13T17:13:59.965Z,15.70
2018-04-13T17:16:27.805Z,15.80
2018-04-13T17:18:55.673Z,15.80
2018-04-13T17:21:24.729Z,15.70
2018-04-13T17:23:53.253Z,15.80
2018-04-13T17:26:21.042Z,15.80
2018-04-13T17:28:49.624Z,15.80
2018-04-13T17:31:17.442Z,15.70
2018-04-13T17:33:45.361Z,15.80
2018-04-13T17:36:14.126Z,15.80
2018-04-13T17:38:41.968Z,15.80
2018-04-13T17:41:09.721Z,15.70
2018-04-13T17:43:37.520Z,15.80
2018-04-13T17:46:05.362Z,15.80
2018-04-13T17:48:33.148Z,15.80
2018-04-13T17:51:00.917Z,15.80
2018-04-13T17:53:28.728Z,15.80
2018-04-13T17:55:57.358Z,15.80
2018-04-13T17:58:25.149Z,15.80
2018-04-13T18:00:52.992Z,15.80
2018-04-13T18:03:20.975Z,15.70
2018-04-13T18:05:49.695Z,15.70
2018-04-13T18:08:18.335Z,15.60
2018-04-13T18:10:46.198Z,15.70
2018-04-13T18:13:13.957Z,15.60
2018-04-13T18:15:41.760Z,15.60
2018-04-13T18:18:10.354Z,15.60
2018-04-13T18:20:38.934Z,15.60
2018-04-13T18:23:07.642Z,15.50
2018-04-13T18:25:35.660Z,15.50
2018-04-13T18:28:03.595Z,15.50
2018-04-13T18:30:31.409Z,15.40
2018-04-13T18:32:59.217Z,15.40
2018-04-13T18:35:27.554Z,15.40
2018-04-13T18:37:55.327Z,15.40
2018-04-13T18:40:23.068Z,15.40
2018-04-13T18:42:50.820Z,15.40
2018-04-13T18:45:18.571Z,15.40
2018-04-13T18:47:46.385Z,15.40
2018-04-13T18:50:14.978Z,15.40
2018-04-13T18:52:43.511Z,15.40
2018-04-13T18:55:11.275Z,15.40
2018-04-13T18:57:39.367Z,15.40
2018-04-13T19:00:07.881Z,15.30
2018-04-13T19:02:36.405Z,15.40
2018-04-13T19:05:04.238Z,15.30
2018-04-13T19:07:32.038Z,15.30
2018-04-13T19:09:59.837Z,15.40
2018-04-13T19:12:27.619Z,15.40
2018-04-13T19:14:56.181Z,15.40
2018-04-13T19:17:23.920Z,15.40
2018-04-13T19:19:51.665Z,15.40
2018-04-13T19:22:19.462Z,15.40
2018-04-13T19:24:47.236Z,15.40
2018-04-13T19:27:14.984Z,15.50
2018-04-13T19:29:42.725Z,15.50
2018-04-13T19:32:10.831Z,15.50
2018-04-13T19:34:38.601Z,15.50
2018-04-13T19:37:06.416Z,15.50
2018-04-13T19:39:34.164Z,15.60
2018-04-13T19:42:02.708Z,15.60
2018-04-13T19:44:30.468Z,15.60
2018-04-13T19:46:58.268Z,15.60
2018-04-13T19:49:26.832Z,15.60
2018-04-13T19:51:55.346Z,15.60
2018-04-13T19:54:23.146Z,15.60
2018-04-13T19:56:53.842Z,15.60
2018-04-13T19:59:21.671Z,15.60
2018-04-13T20:01:49.417Z,15.60
2018-04-13T20:04:17.944Z,15.60
2018-04-13T20:06:45.697Z,15.60
2018-04-13T20:09:14.261Z,15.60
2018-04-13T20:11:41.991Z,15.60
2018-04-13T20:14:09.816Z,15.60
2018-04-13T20:16:38.344Z,15.60
2018-04-13T20:19:06.093Z,15.70
2018-04-13T20:21:33.847Z,15.70
2018-04-13T20:24:01.638Z,15.70
2018-04-13T20:26:29.442Z,15.60
2018-04-13T20:28:58.065Z,15.60
2018-04-13T20:31:25.809Z,15.60
2018-04-13T20:33:53.565Z,15.60
2018-04-13T20:36:22.102Z,15.60
2018-04-13T20:38:49.846Z,15.50
2018-04-13T20:41:17.709Z,15.60
2018-04-13T20:43:45.699Z,15.60
2018-04-13T20:46:13.764Z,15.50
2018-04-13T20:48:41.536Z,15.50
2018-04-13T20:51:09.443Z,15.50
2018-04-13T20:53:37.297Z,15.50
2018-04-13T20:56:05.901Z,15.60
2018-04-13T20:58:33.669Z,15.50
2018-04-13T21:01:01.540Z,15.50
2018-04-13T21:03:29.382Z,15.50
2018-04-13T21:05:58.111Z,15.40
2018-04-13T21:08:26.001Z,15.50
2018-04-13T21:10:53.816Z,15.50
2018-04-13T21:13:21.687Z,15.40
2018-04-13T21:15:49.509Z,15.40
2018-04-13T21:18:17.296Z,15.40
2018-04-13T21:20:46.052Z,15.40
2018-04-13T21:23:13.853Z,15.40
2018-04-13T21:25:41.675Z,15.30
2018-04-13T21:28:09.453Z,15.30
2018-04-13T21:30:37.251Z,15.30
2018-04-13T21:33:05.033Z,15.30
2018-04-13T21:35:32.798Z,15.30
2018-04-13T21:38:00.624Z,15.30
2018-04-13T21:40:28.495Z,15.30
2018-04-13T21:42:56.562Z,15.30
2018-04-13T21:45:25.142Z,15.20
2018-04-13T21:47:52.966Z,15.30
2018-04-13T21:50:20.705Z,15.30
2018-04-13T21:52:48.435Z,15.30
2018-04-13T21:55:16.173Z,15.20
2018-04-13T21:57:43.908Z,15.20
2018-04-13T22:00:11.685Z,15.20
2018-04-13T22:02:39.431Z,15.20
2018-04-13T22:05:07.176Z,15.20
2018-04-13T22:07:35.674Z,15.20
2018-04-13T22:10:03.509Z,15.20
2018-04-13T22:12:43.816Z,15.20
2018-04-13T22:15:11.753Z,15.20
2018-04-13T22:17:39.525Z,15.20
2018-04-13T22:20:07.300Z,15.20
2018-04-13T22:22:35.035Z,15.20
2018-04-13T22:25:03.604Z,15.20
2018-04-13T22:27:31.342Z,15.20
2018-04-13T22:29:59.083Z,15.20
2018-04-13T22:32:26.822Z,15.20
2018-04-13T22:34:54.576Z,15.10
2018-04-13T22:37:23.081Z,15.10
2018-04-13T22:39:50.817Z,15.10
2018-04-13T22:42:19.351Z,15.10
2018-04-13T22:44:47.082Z,15.00
2018-04-13T22:47:14.820Z,15.00
2018-04-13T22:49:43.336Z,15.00
2018-04-13T22:52:11.077Z,15.00
2018-04-13T22:54:39.578Z,15.00
2018-04-13T22:57:07.339Z,15.00
2018-04-13T22:59:35.105Z,15.00
2018-04-13T23:02:02.833Z,14.90
2018-04-13T23:04:31.341Z,14.90
2018-04-13T23:06:59.085Z,14.90
2018-04-13T23:09:27.592Z,14.90
2018-04-13T23:11:55.348Z,14.90
2018-04-13T23:14:23.105Z,14.90
2018-04-13T23:16:50.836Z,14.90
2018-04-13T23:19:18.569Z,14.90
2018-04-13T23:21:46.344Z,14.90
2018-04-13T23:24:14.084Z,14.80
2018-04-13T23:26:41.820Z,14.80
2018-04-13T23:29:10.331Z,14.80
2018-04-13T23:31:38.068Z,14.80
2018-04-13T23:34:05.828Z,14.80
2018-04-13T23:36:33.565Z,14.80
2018-04-13T23:39:01.317Z,14.80
2018-04-13T23:41:29.945Z,14.80
2018-04-13T23:43:58.386Z,14.80
2018-04-13T23:46:26.189Z,14.80
2018-04-13T23:48:53.949Z,14.70
2018-04-13T23:51:22.472Z,14.70
2018-04-13T23:53:50.981Z,14.70
2018-04-13T23:56:18.785Z,14.70
2018-04-13T23:58:46.571Z,14.70
